createdAt,value
2019-01-10T00:01:24.420Z,73.59
2019-01-10T00:03:54.949Z,74.06
2019-01-10T00:06:25.466Z,74.59
2019-01-10T00:08:56.019Z,75.02
2019-01-10T00:11:26.547Z,74.51
2019-01-10T00:13:57.053Z,75.58
2019-01-10T00:16:27.607Z,75.16
2019-01-10T00:18:58.091Z,74.88
2019-01-10T00:21:28.664Z,75.00
2019-01-10T00:23:59.245Z,74.70
2019-01-10T00:26:29.768Z,74.28
2019-01-10T00:29:00.327Z,74.07
2019-01-10T00:31:30.933Z,74.05
2019-01-10T00:34:01.430Z,74.59
2019-01-10T00:36:32.017Z,75.07
2019-01-10T00:39:02.607Z,73.39
2019-01-10T00:41:33.143Z,73.91
2019-01-10T00:44:03.683Z,73.56
2019-01-10T00:46:34.216Z,72.74
2019-01-10T00:49:04.767Z,73.37
2019-01-10T00:51:35.279Z,73.63
2019-01-10T00:54:05.828Z,73.69
2019-01-10T00:56:36.344Z,74.24
2019-01-10T00:59:06.860Z,75.33
2019-01-10T01:01:37.397Z,74.21
2019-01-10T01:04:09.216Z,74.29
2019-01-10T01:06:39.804Z,75.21
2019-01-10T01:09:10.497Z,74.92
2019-01-10T01:11:41.056Z,75.06
2019-01-10T01:14:11.554Z,73.77
2019-01-10T01:16:42.093Z,73.76
2019-01-10T01:19:12.638Z,74.22
2019-01-10T01:21:43.159Z,74.58
2019-01-10T01:24:14.250Z,75.09
2019-01-10T01:26:44.866Z,75.39
2019-01-10T01:29:15.397Z,75.00
2019-01-10T01:31:45.946Z,75.21
2019-01-10T01:34:16.438Z,75.57
2019-01-10T01:36:46.944Z,75.73
2019-01-10T01:39:17.451Z,74.97
2019-01-10T01:41:48.004Z,75.61
2019-01-10T01:44:18.484Z,75.34
2019-01-10T01:46:49.034Z,75.07
2019-01-10T01:49:19.562Z,74.96
2019-01-10T01:51:50.187Z,75.89
2019-01-10T01:54:22.999Z,76.10
2019-01-10T01:56:53.496Z,75.98
2019-01-10T01:59:24.070Z,76.35
2019-01-10T02:01:54.640Z,76.32
2019-01-10T02:04:25.139Z,75.47
2019-01-10T02:06:55.660Z,76.39
2019-01-10T02:09:26.196Z,76.62
2019-01-10T02:11:56.774Z,76.64
2019-01-10T02:14:27.346Z,77.03
2019-01-10T02:17:01.035Z,77.51
2019-01-10T02:19:31.569Z,77.48
2019-01-10T02:22:02.085Z,76.90
2019-01-10T02:24:33.559Z,76.30
2019-01-10T02:27:04.119Z,76.46
2019-01-10T02:29:34.731Z,76.64
2019-01-10T02:32:05.467Z,76.36
2019-01-10T02:34:35.980Z,76.58
2019-01-10T02:37:06.679Z,77.14
2019-01-10T02:39:37.230Z,76.85
2019-01-10T02:42:07.766Z,77.34
2019-01-10T02:44:38.261Z,76.60
2019-01-10T02:47:08.977Z,76.19
2019-01-10T02:49:39.467Z,76.40
2019-01-10T02:52:09.962Z,76.80
2019-01-10T02:54:40.491Z,78.03
2019-01-10T02:57:11.015Z,77.87
2019-01-10T02:59:41.532Z,76.86
2019-01-10T03:02:12.073Z,76.95
2019-01-10T03:04:42.667Z,77.25
2019-01-10T03:07:13.186Z,77.56
2019-01-10T03:09:43.706Z,77.50
2019-01-10T03:12:14.200Z,78.85
2019-01-10T03:14:44.878Z,78.53
2019-01-10T03:17:15.425Z,78.85
2019-01-10T03:19:45.893Z,78.24
2019-01-10T03:22:16.443Z,78.96
2019-01-10T03:24:46.982Z,78.25
2019-01-10T03:27:17.511Z,78.68
2019-01-10T03:29:48.004Z,78.33
2019-01-10T03:32:18.563Z,77.32
2019-01-10T03:34:49.073Z,78.39
2019-01-10T03:37:19.578Z,78.36
2019-01-10T03:39:50.114Z,78.70
2019-01-10T03:42:20.623Z,78.27
2019-01-10T03:44:51.504Z,78.56
2019-01-10T03:47:22.039Z,77.92
2019-01-10T03:49:52.529Z,78.21
2019-01-10T03:52:23.025Z,77.36
2019-01-10T03:54:53.938Z,77.46
2019-01-10T03:57:24.496Z,78.02
2019-01-10T03:59:54.972Z,78.10
2019-01-10T04:02:25.546Z,78.01
2019-01-10T04:04:56.215Z,78.20
2019-01-10T04:07:26.764Z,78.67
2019-01-10T04:09:57.331Z,78.46
2019-01-10T04:12:27.831Z,78.07
2019-01-10T04:14:58.350Z,78.38
2019-01-10T04:17:28.863Z,78.74
2019-01-10T04:19:59.382Z,78.60
2019-01-10T04:22:29.900Z,78.26
2019-01-10T04:25:00.459Z,78.85
2019-01-10T04:27:30.974Z,78.78
2019-01-10T04:30:01.480Z,78.78
2019-01-10T04:32:32.062Z,79.06
2019-01-10T04:35:02.753Z,79.58
2019-01-10T04:37:33.250Z,79.13
2019-01-10T04:40:03.869Z,80.16
2019-01-10T04:42:34.353Z,80.04
2019-01-10T04:45:05.418Z,79.05
2019-01-10T04:47:36.026Z,79.27
2019-01-10T04:50:07.976Z,79.29
2019-01-10T04:52:38.523Z,79.13
2019-01-10T04:55:09.937Z,79.02
2019-01-10T04:57:40.413Z,79.60
2019-01-10T05:00:25.821Z,78.94
2019-01-10T05:02:56.405Z,79.63
2019-01-10T05:05:26.860Z,79.83
2019-01-10T05:07:57.342Z,79.07
2019-01-10T05:10:27.934Z,79.04
2019-01-10T05:12:58.443Z,78.83
2019-01-10T05:15:28.944Z,79.28
2019-01-10T05:17:59.450Z,78.65
2019-01-10T05:20:29.881Z,78.80
2019-01-10T05:23:00.439Z,79.09
2019-01-10T05:25:30.909Z,78.71
2019-01-10T05:28:01.412Z,78.75
2019-01-10T05:30:31.886Z,78.83
2019-01-10T05:33:02.428Z,78.91
2019-01-10T05:35:32.876Z,78.53
2019-01-10T05:38:03.398Z,78.22
2019-01-10T05:40:33.875Z,78.89
2019-01-10T05:43:04.401Z,78.67
2019-01-10T05:45:34.913Z,79.22
2019-01-10T05:48:05.528Z,79.40
2019-01-10T05:50:36.011Z,79.05
2019-01-10T05:53:06.481Z,78.88
2019-01-10T05:55:36.991Z,78.95
2019-01-10T05:58:07.496Z,79.31
2019-01-10T06:00:37.986Z,80.22
2019-01-10T06:03:08.483Z,80.25
2019-01-10T06:05:39.172Z,80.02
2019-01-10T06:08:09.738Z,80.65
2019-01-10T06:10:40.244Z,81.14
2019-01-10T06:13:10.744Z,81.14
2019-01-10T06:15:41.375Z,81.51
2019-01-10T06:18:11.861Z,81.70
2019-01-10T06:20:42.373Z,81.72
2019-01-10T06:23:12.926Z,82.36
2019-01-10T06:25:43.409Z,81.68
2019-01-10T06:28:13.950Z,81.65
2019-01-10T06:30:44.456Z,81.24
2019-01-10T06:33:14.979Z,81.48
2019-01-10T06:35:45.478Z,81.96
2019-01-10T06:38:16.034Z,82.51
2019-01-10T06:40:46.582Z,82.66
2019-01-10T06:43:17.106Z,82.36
2019-01-10T07:49:55.855Z,85.92
2019-01-10T07:52:26.565Z,86.56
2019-01-10T07:54:57.214Z,86.80
2019-01-10T07:57:27.914Z,87.24
2019-01-10T07:59:58.433Z,87.10
2019-01-10T08:05:25.245Z,87.80
2019-01-10T08:07:56.034Z,87.94
2019-01-10T08:10:26.605Z,88.06
2019-01-10T08:12:57.287Z,88.19
2019-01-10T08:15:27.999Z,88.23
2019-01-10T08:17:58.713Z,88.22
2019-01-10T08:20:29.275Z,88.33
2019-01-10T08:22:59.869Z,88.41
2019-01-10T08:25:30.510Z,88.61
2019-01-10T08:28:01.146Z,88.23
2019-01-10T08:30:31.944Z,88.39
2019-01-10T08:33:03.515Z,88.35
2019-01-10T08:35:34.247Z,88.63
2019-01-10T08:38:04.860Z,88.27
2019-01-10T08:40:35.473Z,88.39
2019-01-10T08:43:06.041Z,88.10
2019-01-10T08:45:37.129Z,88.12
2019-01-10T08:48:07.706Z,87.97
2019-01-10T08:50:38.511Z,88.06
2019-01-10T08:53:09.186Z,87.56
2019-01-10T08:55:39.895Z,87.21
2019-01-10T08:58:10.514Z,87.21
2019-01-10T09:00:41.073Z,87.13
2019-01-10T09:03:11.685Z,86.79
2019-01-10T09:05:42.735Z,86.55
2019-01-10T09:08:13.461Z,85.74
2019-01-10T09:10:44.047Z,85.56
2019-01-10T09:13:14.624Z,85.22
2019-01-10T09:15:45.256Z,85.62
2019-01-10T09:18:15.817Z,84.48
2019-01-10T09:20:46.433Z,84.33
2019-01-10T09:23:16.960Z,84.41
2019-01-10T09:25:47.511Z,84.07
2019-01-10T09:28:18.036Z,84.93
2019-01-10T09:30:48.572Z,83.91
2019-01-10T09:33:19.121Z,83.95
2019-01-10T09:35:49.714Z,83.25
2019-01-10T09:38:20.225Z,82.83
2019-01-10T09:40:50.766Z,81.31
2019-01-10T09:43:21.333Z,81.84
2019-01-10T09:45:51.938Z,81.71
2019-01-10T09:48:22.462Z,80.57
2019-01-10T09:50:53.046Z,81.87
2019-01-10T09:53:23.650Z,79.92
2019-01-10T09:55:54.225Z,80.09
2019-01-10T09:58:24.854Z,80.84
2019-01-10T10:00:55.388Z,82.16
2019-01-10T10:03:25.995Z,81.09
2019-01-10T10:05:56.623Z,80.41
2019-01-10T10:08:27.248Z,81.14
2019-01-10T10:10:57.806Z,81.17
2019-01-10T10:13:28.375Z,81.20
2019-01-10T10:15:58.952Z,81.20
2019-01-10T10:18:29.642Z,81.03
2019-01-10T10:21:00.298Z,80.21
2019-01-10T10:23:30.827Z,80.27
2019-01-10T10:26:01.319Z,79.74
2019-01-10T10:28:31.971Z,80.01
2019-01-10T10:31:02.510Z,78.96
2019-01-10T10:33:33.093Z,79.12
2019-01-10T10:36:03.678Z,79.57
2019-01-10T10:38:34.233Z,79.91
2019-01-10T10:41:04.772Z,79.21
2019-01-10T10:43:35.392Z,79.30
2019-01-10T10:46:06.182Z,79.27
2019-01-10T10:48:36.787Z,79.42
2019-01-10T10:51:07.485Z,79.61
2019-01-10T10:53:38.064Z,80.03
2019-01-10T10:56:09.863Z,79.69
2019-01-10T10:58:40.384Z,80.53
2019-01-10T11:01:11.430Z,81.18
2019-01-10T11:03:42.044Z,81.14
2019-01-10T11:06:12.641Z,80.62
2019-01-10T11:08:44.621Z,80.83
2019-01-10T11:11:15.352Z,80.60
2019-01-10T11:13:45.915Z,80.75
2019-01-10T11:16:16.500Z,80.55
2019-01-10T11:18:47.099Z,80.94
2019-01-10T11:21:17.608Z,80.83
2019-01-10T11:23:48.172Z,80.96
2019-01-10T11:26:18.749Z,81.84
2019-01-10T11:28:49.378Z,81.64
2019-01-10T11:31:19.923Z,81.90
2019-01-10T11:33:50.557Z,81.88
2019-01-10T11:36:21.065Z,81.48
2019-01-10T11:38:51.648Z,81.39
2019-01-10T11:41:22.192Z,81.13
2019-01-10T11:43:52.765Z,81.19
2019-01-10T11:46:23.299Z,80.03
2019-01-10T11:48:53.889Z,80.05
2019-01-10T11:51:24.411Z,80.32
2019-01-10T11:53:54.931Z,80.38
2019-01-10T11:56:25.524Z,80.83
2019-01-10T11:58:56.178Z,80.64
2019-01-10T12:01:26.754Z,80.08
2019-01-10T12:03:57.329Z,80.60
2019-01-10T12:06:27.872Z,81.13
2019-01-10T12:08:58.450Z,80.68
2019-01-10T12:11:28.998Z,80.87
2019-01-10T12:13:59.878Z,81.21
2019-01-10T12:16:30.520Z,80.98
2019-01-10T12:19:01.169Z,81.32
2019-01-10T12:21:31.745Z,81.46
2019-01-10T12:24:02.249Z,81.59
2019-01-10T12:26:32.804Z,81.93
2019-01-10T12:29:03.373Z,81.83
2019-01-10T12:31:33.933Z,81.79
2019-01-10T12:34:04.441Z,80.99
2019-01-10T12:36:34.976Z,80.81
2019-01-10T12:39:07.120Z,80.57
2019-01-10T12:41:37.611Z,80.76
2019-01-10T12:44:08.361Z,80.26
2019-01-10T12:49:08.278Z,80.39
2019-01-10T12:51:38.760Z,79.77
2019-01-10T12:54:09.446Z,79.41
2019-01-10T12:56:39.934Z,79.21
2019-01-10T12:59:10.460Z,79.35
2019-01-10T13:01:41.027Z,78.85
2019-01-10T13:04:11.577Z,78.05
2019-01-10T13:06:42.129Z,78.21
2019-01-10T13:09:12.683Z,78.42
2019-01-10T13:11:43.179Z,78.24
2019-01-10T13:14:14.365Z,78.84
2019-01-10T13:16:47.209Z,78.62
2019-01-10T13:19:23.652Z,79.01
2019-01-10T13:21:54.303Z,79.61
2019-01-10T13:24:24.885Z,79.99
2019-01-10T13:26:55.477Z,80.74
2019-01-10T13:29:26.117Z,80.39
2019-01-10T13:31:56.742Z,80.92
2019-01-10T13:34:27.380Z,80.48
2019-01-10T13:36:57.915Z,80.60
2019-01-10T13:39:28.607Z,80.24
2019-01-10T13:41:59.172Z,80.86
2019-01-10T13:44:29.789Z,80.62
2019-01-10T13:47:00.297Z,80.97
2019-01-10T13:49:30.887Z,80.86
2019-01-10T13:52:01.584Z,81.43
2019-01-10T13:54:32.190Z,81.52
2019-01-10T13:57:02.879Z,81.43
2019-01-10T13:59:33.724Z,81.64
2019-01-10T14:02:04.558Z,81.50
2019-01-10T14:04:35.141Z,81.64
2019-01-10T14:07:05.862Z,81.63
2019-01-10T14:09:36.393Z,81.67
2019-01-10T14:12:07.031Z,82.22
2019-01-10T14:14:38.037Z,81.86
2019-01-10T14:17:08.680Z,81.82
2019-01-10T14:19:39.207Z,82.35
2019-01-10T14:22:09.833Z,82.21
2019-01-10T14:24:40.662Z,81.87
2019-01-10T14:27:11.942Z,82.09
2019-01-10T14:29:42.537Z,82.06
2019-01-10T14:32:13.010Z,82.29
2019-01-10T14:34:43.613Z,82.17
2019-01-10T14:37:14.519Z,81.97
2019-01-10T14:39:45.076Z,82.45
2019-01-10T14:42:15.598Z,82.51
2019-01-10T14:44:46.296Z,82.78
2019-01-10T14:47:17.184Z,82.93
2019-01-10T14:49:47.690Z,83.14
2019-01-10T14:52:18.188Z,83.41
2019-01-10T14:54:48.805Z,83.63
2019-01-10T14:57:19.262Z,83.74
2019-01-10T14:59:49.729Z,83.71
2019-01-10T15:02:20.307Z,83.43
2019-01-10T15:04:50.969Z,83.78
2019-01-10T15:07:21.503Z,84.08
2019-01-10T15:09:52.002Z,83.92
2019-01-10T15:12:22.499Z,84.00
2019-01-10T15:14:52.915Z,84.42
2019-01-10T15:17:23.525Z,84.34
2019-01-10T15:19:54.105Z,84.37
2019-01-10T15:22:24.760Z,84.52
2019-01-10T15:24:55.330Z,85.00
2019-01-10T15:27:25.978Z,84.69
2019-01-10T15:29:56.517Z,84.82
2019-01-10T15:32:27.100Z,85.01
2019-01-10T15:34:57.598Z,85.01
2019-01-10T15:37:28.127Z,85.37
2019-01-10T15:39:58.829Z,85.39
2019-01-10T15:42:29.522Z,85.45
2019-01-10T15:45:00.146Z,85.56
2019-01-10T15:47:30.832Z,85.55
2019-01-10T15:50:01.555Z,85.55
2019-01-10T15:52:32.158Z,85.59
2019-01-10T15:55:02.686Z,85.55
2019-01-10T15:57:33.212Z,85.39
2019-01-10T16:00:03.921Z,86.15
2019-01-10T16:02:36.524Z,86.01
2019-01-10T16:05:07.253Z,86.03
2019-01-10T16:07:37.838Z,86.52
2019-01-10T16:10:14.100Z,86.31
2019-01-10T16:12:44.981Z,86.51
2019-01-10T16:15:20.278Z,86.56
2019-01-10T16:17:50.825Z,86.67
2019-01-10T16:20:21.357Z,86.65
2019-01-10T16:22:52.079Z,86.88
2019-01-10T16:25:22.646Z,86.53
2019-01-10T16:27:53.158Z,86.43
2019-01-10T16:30:27.994Z,86.51
2019-01-10T16:32:58.728Z,86.50
2019-01-10T16:35:29.358Z,86.48
2019-01-10T16:38:00.127Z,86.60
2019-01-10T16:40:30.831Z,86.75
2019-01-10T16:43:01.468Z,86.67
2019-01-10T16:45:33.682Z,87.09
2019-01-10T16:48:04.510Z,87.09
2019-01-10T16:50:35.827Z,86.96
2019-01-10T16:53:06.578Z,87.06
2019-01-10T16:55:37.128Z,87.33
2019-01-10T16:58:07.747Z,86.82
2019-01-10T17:00:38.333Z,87.12
2019-01-10T17:03:08.835Z,87.25
2019-01-10T17:05:39.366Z,86.99
2019-01-10T17:08:09.929Z,86.86
2019-01-10T17:10:40.479Z,86.95
2019-01-10T17:13:10.950Z,87.34
2019-01-10T17:15:41.518Z,87.29
2019-01-10T17:18:11.990Z,87.65
2019-01-10T17:20:42.531Z,87.52
2019-01-10T17:23:13.082Z,88.16
2019-01-10T17:25:43.604Z,88.30
2019-01-10T17:28:14.121Z,88.29
2019-01-10T17:30:44.635Z,88.65
2019-01-10T17:33:15.160Z,88.18
2019-01-10T17:35:45.637Z,88.46
2019-01-10T17:38:16.190Z,88.63
2019-01-10T17:40:46.682Z,88.66
2019-01-10T17:43:17.265Z,88.96
2019-01-10T17:45:47.922Z,88.72
2019-01-10T17:48:18.419Z,89.11
2019-01-10T17:50:48.973Z,89.33
2019-01-10T17:53:19.799Z,89.38
2019-01-10T17:55:50.310Z,89.39
2019-01-10T17:58:20.825Z,89.42
2019-01-10T18:00:51.525Z,89.84
2019-01-10T18:03:22.055Z,89.68
2019-01-10T18:05:52.566Z,89.93
2019-01-10T18:08:23.116Z,90.04
2019-01-10T18:10:53.623Z,89.96
2019-01-10T18:13:24.166Z,90.07
2019-01-10T18:15:54.657Z,90.30
2019-01-10T18:18:25.319Z,90.37
2019-01-10T18:20:55.793Z,90.33
2019-01-10T18:23:26.377Z,89.98
2019-01-10T18:25:56.902Z,90.09
2019-01-10T18:28:27.430Z,90.55
2019-01-10T18:31:01.681Z,90.59
2019-01-10T18:33:32.268Z,91.05
2019-01-10T18:36:02.807Z,91.15
2019-01-10T18:38:33.351Z,91.37
2019-01-10T18:41:03.843Z,91.24
2019-01-10T18:43:34.406Z,91.17
2019-01-10T18:48:41.055Z,91.33
2019-01-10T18:51:11.738Z,91.73
2019-01-10T18:53:42.416Z,91.95
2019-01-10T18:56:55.694Z,91.98
2019-01-10T18:59:27.902Z,91.63
2019-01-10T19:54:02.981Z,92.24
2019-01-10T19:56:35.059Z,92.21
2019-01-10T19:59:06.075Z,92.54
2019-01-10T20:01:37.735Z,92.66
2019-01-10T20:04:08.752Z,92.73
2019-01-10T20:06:40.184Z,93.01
2019-01-10T20:09:11.393Z,92.67
2019-01-10T20:11:42.330Z,92.87
2019-01-10T20:14:13.163Z,92.79
2019-01-10T20:16:47.961Z,92.78
2019-01-10T20:19:18.938Z,92.76
2019-01-10T20:21:49.629Z,92.70
2019-01-10T20:24:23.732Z,93.00
2019-01-10T20:26:54.933Z,93.08
2019-01-10T20:29:25.503Z,93.39
2019-01-10T20:31:56.798Z,93.44
2019-01-10T20:34:27.322Z,92.83
2019-01-10T20:36:57.850Z,93.07
2019-01-10T20:39:29.490Z,93.32
2019-01-10T20:42:01.946Z,92.96
2019-01-10T20:44:33.020Z,93.25
2019-01-10T20:47:03.765Z,93.40
2019-01-10T20:49:34.573Z,93.40
2019-01-10T20:52:05.824Z,93.69
2019-01-10T20:54:38.846Z,93.41
2019-01-10T20:57:09.598Z,93.21
2019-01-10T20:59:40.270Z,93.31
2019-01-10T21:02:11.533Z,93.32
2019-01-10T21:04:42.175Z,92.86
2019-01-10T21:07:13.650Z,92.78
2019-01-10T21:09:45.116Z,92.99
2019-01-10T21:12:16.188Z,93.20
2019-01-10T21:14:47.217Z,93.40
2019-01-10T21:17:17.961Z,93.60
2019-01-10T21:19:48.608Z,93.68
2019-01-10T21:22:38.377Z,93.88
2019-01-10T21:25:09.634Z,93.92
2019-01-10T21:27:40.360Z,93.74
2019-01-10T21:30:15.695Z,93.90
2019-01-10T21:32:47.830Z,93.98
2019-01-10T21:35:20.342Z,93.91
2019-01-10T21:37:54.597Z,94.19
2019-01-10T21:40:25.565Z,94.11
2019-01-10T21:42:56.312Z,94.18
2019-01-10T21:45:26.896Z,94.17
2019-01-10T21:47:57.618Z,94.03
2019-01-10T21:50:28.558Z,94.11
2019-01-10T21:53:00.046Z,94.16
2019-01-10T21:55:31.049Z,94.42
2019-01-10T21:58:02.005Z,94.39
2019-01-10T22:00:33.327Z,94.37
2019-01-10T22:03:05.870Z,94.59
2019-01-10T22:05:36.489Z,94.55
2019-01-10T22:08:09.146Z,94.34
2019-01-10T22:10:39.817Z,94.46
2019-01-10T22:13:10.352Z,94.32
2019-01-10T22:15:40.966Z,94.29
2019-01-10T22:18:11.539Z,94.39
2019-01-10T22:20:42.181Z,94.82
2019-01-10T22:23:12.848Z,95.00
2019-01-10T22:25:43.390Z,94.94
2019-01-10T22:28:13.962Z,95.00
2019-01-10T22:30:44.530Z,94.71
2019-01-10T22:33:15.104Z,94.85
2019-01-10T22:35:45.654Z,94.79
2019-01-10T22:38:16.302Z,94.77
2019-01-10T22:40:46.879Z,94.74
2019-01-10T22:43:18.436Z,94.46
2019-01-10T22:45:49.079Z,94.45
2019-01-10T22:48:19.615Z,94.40
2019-01-10T22:50:50.132Z,94.53
2019-01-10T22:53:20.645Z,94.77
2019-01-10T22:55:51.216Z,94.89
2019-01-10T22:58:21.785Z,95.03
2019-01-10T23:01:39.113Z,95.17
2019-01-10T23:04:11.997Z,95.23
2019-01-10T23:06:42.647Z,95.39
2019-01-10T23:09:13.210Z,95.35
2019-01-10T23:11:44.555Z,95.34
2019-01-10T23:14:15.063Z,95.39
2019-01-10T23:16:45.673Z,95.42
2019-01-10T23:19:16.317Z,95.22
2019-01-10T23:21:46.831Z,95.28
2019-01-10T23:24:19.460Z,95.37
2019-01-10T23:26:56.904Z,95.26
2019-01-10T23:29:36.694Z,95.23
2019-01-10T23:32:13.715Z,95.47
2019-01-10T23:34:51.742Z,95.75
2019-01-10T23:37:24.705Z,95.85
2019-01-10T23:39:56.354Z,95.80
2019-01-10T23:42:26.924Z,95.79
2019-01-10T23:44:57.447Z,95.84
2019-01-10T23:47:27.978Z,95.81
2019-01-10T23:49:58.512Z,95.94
2019-01-10T23:52:29.853Z,95.99
2019-01-10T23:55:00.421Z,96.15
2019-01-10T23:57:30.878Z,96.14
